Terminal Aerodrome Forecast
Issued by NWS

Home | Current Version | Previous Version | Text Only | Print | Product List | Glossary On
Versions: 1 2 3 4 5 6 7 8 9 10 11 12 13 14
000
FTUS45 KABQ 280521
TAFGUP
TAF
KGUP 280521Z 2806/2906 22010KT P6SM VCSH BKN045 BKN070
     FM281000 26008KT P6SM VCSH OVC035
     FM281500 29015G22KT P6SM VCSH BKN040 BKN070
     FM282000 32018G28KT P6SM VCSH BKN050 BKN070=

USA.gov is the U.S. government's official web portal to all federal, state and local government web resources and services.